Time;durP1;ratioP1;P1;durP2;ratioP2;P2;SDS_P1;SDS_P2;PMS_P1;PMS_P2;Temp;Humidity;BMP_temperature;BMP_pressure;BME280_temperature;BME280_humidity;BME280_pressure;Samples;Min_cycle;Max_cycle;Signal;HPM_P1;HPM_P2
2021/03/18 00:00:27;;;;;;;10.30;5.80;;;4.00;99.90;;;;;;5090844;28;20528;-76
2021/03/18 00:02:53;;;;;;;10.20;6.07;;;4.00;99.90;;;;;;5091127;28;20135;-76
2021/03/18 00:05:20;;;;;;;9.27;5.82;;;4.10;99.90;;;;;;5091062;28;20487;-76
2021/03/18 00:07:47;;;;;;;10.95;6.20;;;4.10;99.70;;;;;;5090911;28;20135;-75
2021/03/18 00:10:15;;;;;;;9.77;5.75;;;4.00;99.80;;;;;;5090669;28;20135;-75
2021/03/18 00:12:42;;;;;;;9.90;5.40;;;4.00;99.60;;;;;;5091113;28;20055;-75
2021/03/18 00:15:10;;;;;;;9.68;5.70;;;3.90;99.90;;;;;;5090969;28;20169;-75
2021/03/18 00:17:38;;;;;;;8.98;5.65;;;3.90;99.90;;;;;;5090605;28;20123;-75
2021/03/18 00:20:08;;;;;;;8.70;5.82;;;3.90;99.90;;;;;;5090787;28;20481;-75
2021/03/18 00:22:38;;;;;;;10.02;5.57;;;3.90;99.90;;;;;;5074965;28;20048;-76
2021/03/18 00:25:08;;;;;;;8.57;5.75;;;3.90;99.90;;;;;;5090109;28;20131;-75
2021/03/18 00:27:35;;;;;;;8.80;5.78;;;3.90;99.90;;;;;;5090257;28;20131;-76
2021/03/18 00:30:02;;;;;;;9.13;5.75;;;4.00;99.90;;;;;;5090787;28;20138;-75
2021/03/18 00:32:29;;;;;;;10.18;6.20;;;4.00;99.90;;;;;;5090042;28;20139;-76
2021/03/18 00:34:56;;;;;;;10.02;5.95;;;4.00;99.90;;;;;;5090052;28;20131;-76
2021/03/18 00:37:23;;;;;;;8.80;5.70;;;4.10;99.90;;;;;;5090032;28;20158;-76
2021/03/18 00:39:50;;;;;;;8.40;5.32;;;4.10;99.90;;;;;;5090197;28;20043;-76
2021/03/18 00:42:16;;;;;;;8.85;5.78;;;4.10;99.90;;;;;;5090302;28;20470;-76
2021/03/18 00:44:43;;;;;;;10.05;5.80;;;4.10;99.90;;;;;;5090569;28;20662;-77
2021/03/18 00:47:10;;;;;;;8.77;5.78;;;4.00;99.80;;;;;;5089923;28;20044;-76
2021/03/18 00:49:36;;;;;;;8.65;5.57;;;4.00;99.90;;;;;;5089555;28;20190;-77
2021/03/18 00:52:05;;;;;;;8.65;5.78;;;4.00;99.90;;;;;;5071879;28;20047;-75
2021/03/18 00:54:31;;;;;;;8.40;5.32;;;4.00;99.90;;;;;;5090236;28;20146;-76
2021/03/18 00:56:58;;;;;;;10.13;5.97;;;3.90;99.90;;;;;;5090016;28;20142;-76
2021/03/18 00:59:25;;;;;;;8.35;5.65;;;3.90;99.90;;;;;;5089628;28;20067;-76
2021/03/18 01:01:51;;;;;;;9.45;5.60;;;3.90;99.90;;;;;;5090355;28;20272;-76
2021/03/18 01:04:18;;;;;;;9.68;5.50;;;3.90;99.90;;;;;;5089654;28;20131;-76
2021/03/18 01:06:45;;;;;;;9.40;5.70;;;3.90;99.90;;;;;;5089799;28;20111;-76
2021/03/18 01:09:13;;;;;;;9.23;5.20;;;3.90;99.90;;;;;;5089727;28;20486;-76
2021/03/18 01:11:40;;;;;;;8.98;5.82;;;3.90;99.90;;;;;;5089784;28;20135;-76
2021/03/18 01:14:10;;;;;;;9.48;5.38;;;3.90;99.90;;;;;;5089489;28;20131;-76
2021/03/18 01:16:41;;;;;;;8.02;5.50;;;3.90;99.90;;;;;;5073457;28;20044;-76
2021/03/18 01:19:10;;;;;;;9.85;5.93;;;3.90;99.90;;;;;;5089847;28;20127;-75
2021/03/18 01:21:40;;;;;;;9.25;5.40;;;3.90;99.90;;;;;;5089243;28;20475;-75
2021/03/18 01:24:08;;;;;;;8.10;5.18;;;4.00;99.90;;;;;;5089622;28;20100;-75
2021/03/18 01:26:36;;;;;;;8.45;5.70;;;3.90;99.90;;;;;;5089397;28;20457;-77
2021/03/18 01:29:03;;;;;;;7.75;4.80;;;3.90;99.90;;;;;;5088670;28;20573;-76
2021/03/18 01:31:30;;;;;;;9.23;5.43;;;4.00;99.90;;;;;;5088936;28;20080;-77
2021/03/18 01:33:57;;;;;;;8.63;5.50;;;4.00;99.90;;;;;;5084778;28;20541;-77
2021/03/18 01:36:25;;;;;;;8.90;5.72;;;4.00;99.90;;;;;;5070987;28;20470;-77
2021/03/18 01:38:52;;;;;;;9.65;6.30;;;4.00;99.90;;;;;;5089789;28;20410;-77
2021/03/18 01:41:21;;;;;;;9.70;6.20;;;4.10;99.80;;;;;;5088960;28;20506;-76
2021/03/18 01:43:49;;;;;;;10.75;5.53;;;4.00;99.60;;;;;;5089399;28;20546;-76
2021/03/18 01:46:16;;;;;;;7.93;5.18;;;3.90;99.90;;;;;;5071582;28;20136;-76
2021/03/18 01:48:44;;;;;;;9.77;5.30;;;3.90;99.90;;;;;;5089465;28;20119;-76
2021/03/18 01:51:12;;;;;;;9.52;5.90;;;3.90;99.90;;;;;;5089345;28;20059;-76
2021/03/18 01:53:39;;;;;;;7.95;5.43;;;3.90;99.90;;;;;;5089650;28;20058;-77
2021/03/18 01:56:07;;;;;;;9.85;6.32;;;4.00;99.90;;;;;;5089607;28;20050;-77
2021/03/18 01:58:34;;;;;;;9.32;5.70;;;4.00;99.70;;;;;;5088831;28;20465;-77
2021/03/18 02:01:06;;;;;;;8.50;5.40;;;3.90;99.80;;;;;;5089025;28;20055;-76
2021/03/18 02:03:33;;;;;;;9.15;5.85;;;3.90;99.90;;;;;;5088551;28;20556;-76
2021/03/18 02:06:00;;;;;;;8.68;5.70;;;3.90;99.90;;;;;;5088735;28;20143;-77
2021/03/18 02:08:27;;;;;;;8.57;5.65;;;3.90;99.90;;;;;;5088656;28;20044;-77
2021/03/18 02:10:54;;;;;;;8.65;5.43;;;3.90;99.90;;;;;;5089157;28;20404;-76
2021/03/18 02:13:21;;;;;;;8.50;5.70;;;3.90;99.90;;;;;;5089333;28;20096;-75
2021/03/18 02:15:53;;;;;;;9.60;5.90;;;3.90;99.90;;;;;;5089323;28;20071;-76
2021/03/18 02:18:30;;;;;;;9.65;5.85;;;3.90;99.90;;;;;;5088961;28;20456;-76
2021/03/18 02:22:21;;;;;;;10.68;6.40;;;4.00;99.90;;;;;;5081566;28;20135;-76
2021/03/18 02:25:00;;;;;;;9.27;6.07;;;4.00;99.90;;;;;;5020361;28;20128;-76
2021/03/18 02:28:18;;;;;;;9.38;5.85;;;4.00;99.90;;;;;;4992915;28;20041;-77
2021/03/18 02:31:03;;;;;;;10.57;6.15;;;3.90;99.90;;;;;;5090333;28;20133;-76
2021/03/18 02:34:31;;;;;;;9.50;6.22;;;3.90;99.90;;;;;;5074898;28;20126;-76
2021/03/18 02:37:07;;;;;;;9.40;6.07;;;3.90;99.90;;;;;;5088508;28;20083;-76
2021/03/18 02:39:43;;;;;;;10.38;6.10;;;3.90;99.90;;;;;;5092589;28;20044;-76
2021/03/18 02:42:18;;;;;;;10.52;6.53;;;3.90;99.90;;;;;;5092603;28;20139;-76
2021/03/18 02:44:51;;;;;;;10.18;6.32;;;3.90;99.90;;;;;;5092758;28;20127;-76
2021/03/18 02:47:21;;;;;;;9.68;6.45;;;3.90;99.90;;;;;;5092458;28;20044;-77
2021/03/18 02:49:51;;;;;;;10.02;6.53;;;3.90;99.90;;;;;;5092454;28;20123;-76
2021/03/18 02:52:23;;;;;;;9.55;5.97;;;4.00;99.90;;;;;;5092050;28;20139;-77
2021/03/18 02:54:53;;;;;;;8.40;5.82;;;3.90;99.90;;;;;;5092968;28;20044;-76
2021/03/18 02:57:23;;;;;;;8.65;6.05;;;4.00;99.90;;;;;;5091939;28;20047;-77
2021/03/18 02:59:51;;;;;;;9.90;5.97;;;4.00;99.90;;;;;;5092514;28;20071;-75
2021/03/18 03:02:23;;;;;;;11.15;6.32;;;4.00;99.90;;;;;;5081740;28;20511;-76
2021/03/18 03:04:53;;;;;;;9.88;6.07;;;4.00;99.90;;;;;;5074398;28;20048;-76
2021/03/18 03:07:25;;;;;;;10.10;5.82;;;4.00;99.90;;;;;;5092529;28;20131;-76
2021/03/18 03:09:52;;;;;;;10.57;6.03;;;4.10;99.90;;;;;;5092520;28;20135;-76
2021/03/18 03:12:26;;;;;;;11.52;7.32;;;4.00;99.90;;;;;;5092393;28;20127;-76
2021/03/18 03:14:56;;;;;;;12.25;6.75;;;4.00;99.90;;;;;;5092182;28;20080;-77
2021/03/18 03:17:25;;;;;;;9.73;6.68;;;4.00;99.80;;;;;;5092062;28;20131;-76
2021/03/18 03:19:57;;;;;;;9.13;6.45;;;4.00;99.50;;;;;;5093758;28;20126;-76
2021/03/18 03:22:25;;;;;;;10.82;6.80;;;3.90;99.80;;;;;;5096221;28;20131;-76
2021/03/18 03:24:53;;;;;;;9.60;6.40;;;3.90;99.90;;;;;;5096177;28;20082;-76
2021/03/18 03:27:23;;;;;;;11.30;6.68;;;3.90;99.90;;;;;;5095738;28;20147;-76
2021/03/18 03:29:50;;;;;;;9.27;6.22;;;3.90;99.90;;;;;;5096218;28;20123;-76
2021/03/18 03:32:18;;;;;;;11.05;6.72;;;4.00;99.90;;;;;;5096050;28;20127;-76
2021/03/18 03:34:44;;;;;;;9.65;6.55;;;4.00;99.90;;;;;;5095949;28;20139;-76
2021/03/18 03:37:12;;;;;;;11.35;6.78;;;4.00;99.90;;;;;;5095656;28;20130;-76
2021/03/18 03:39:40;;;;;;;9.35;6.55;;;4.00;99.90;;;;;;5095435;28;20123;-76
2021/03/18 03:42:09;;;;;;;10.75;6.88;;;4.00;99.90;;;;;;5095806;28;20134;-76
2021/03/18 03:44:37;;;;;;;12.63;7.15;;;4.00;99.90;;;;;;5095519;28;20138;-76
2021/03/18 03:47:05;;;;;;;9.60;6.82;;;4.00;99.80;;;;;;5095905;28;20123;-75
2021/03/18 03:49:33;;;;;;;10.63;6.78;;;3.90;99.70;;;;;;5095787;28;20123;-75
2021/03/18 03:52:12;;;;;;;9.63;6.45;;;3.90;99.80;;;;;;5095195;28;20138;-76
2021/03/18 03:54:45;;;;;;;10.45;6.15;;;3.80;99.90;;;;;;5079830;28;20569;-75
2021/03/18 03:57:20;;;;;;;11.05;7.00;;;3.80;99.90;;;;;;5095754;28;20122;-76
2021/03/18 03:59:48;;;;;;;10.60;6.60;;;3.80;99.90;;;;;;5077671;28;20130;-76
2021/03/18 04:02:16;;;;;;;11.07;6.65;;;3.80;99.90;;;;;;5071623;28;20590;-76
2021/03/18 04:04:47;;;;;;;12.40;7.28;;;3.80;99.90;;;;;;5057903;28;20127;-76
2021/03/18 04:07:17;;;;;;;12.00;7.30;;;3.80;99.90;;;;;;5070850;28;20064;-75
2021/03/18 04:09:46;;;;;;;11.70;7.25;;;3.80;99.90;;;;;;5070816;28;20195;-75
2021/03/18 04:12:16;;;;;;;9.82;6.50;;;3.80;99.90;;;;;;5071551;28;20050;-76
2021/03/18 04:14:48;;;;;;;9.82;6.60;;;3.80;99.90;;;;;;5070424;28;20041;-76
2021/03/18 04:17:16;;;;;;;11.15;7.28;;;3.80;99.90;;;;;;5071202;28;20089;-77
2021/03/18 04:19:47;;;;;;;10.40;7.28;;;3.80;99.90;;;;;;5070324;28;20462;-76
2021/03/18 04:22:14;;;;;;;11.13;7.07;;;3.80;99.90;;;;;;5071712;28;20135;-76
2021/03/18 04:24:42;;;;;;;11.10;7.38;;;3.80;99.90;;;;;;5070226;28;20137;-75
2021/03/18 04:27:10;;;;;;;13.02;7.22;;;3.90;99.90;;;;;;5071131;28;20131;-75
2021/03/18 04:29:38;;;;;;;9.90;7.03;;;3.90;99.90;;;;;;5069422;28;20131;-76
2021/03/18 04:32:07;;;;;;;10.43;7.47;;;3.90;99.90;;;;;;5070538;28;20519;-76
2021/03/18 04:34:34;;;;;;;9.82;6.90;;;3.90;99.90;;;;;;5070933;28;20154;-76
2021/03/18 04:37:06;;;;;;;12.85;7.22;;;3.90;99.90;;;;;;5069212;28;20148;-76
2021/03/18 04:39:34;;;;;;;11.90;7.55;;;3.90;99.90;;;;;;5070662;28;20456;-76
2021/03/18 04:42:02;;;;;;;10.57;7.13;;;3.90;99.90;;;;;;5071290;28;20375;-77
2021/03/18 04:44:31;;;;;;;10.95;7.47;;;3.90;99.90;;;;;;5070171;28;20671;-76
2021/03/18 04:47:01;;;;;;;12.75;7.93;;;4.00;99.60;;;;;;5070025;28;20413;-77
2021/03/18 04:49:29;;;;;;;12.27;7.72;;;3.90;99.70;;;;;;5071039;28;20089;-76
2021/03/18 04:51:56;;;;;;;10.07;7.18;;;3.90;99.60;;;;;;5070744;28;20041;-76
2021/03/18 04:54:23;;;;;;;11.52;7.20;;;3.90;99.70;;;;;;5069676;28;20131;-75
2021/03/18 04:56:52;;;;;;;11.45;6.95;;;3.80;99.90;;;;;;5070817;28;20128;-75
2021/03/18 04:59:20;;;;;;;10.88;7.30;;;3.80;99.90;;;;;;5070671;28;20052;-76
2021/03/18 05:01:50;;;;;;;12.60;8.00;;;3.80;99.90;;;;;;5072895;28;20048;-75
2021/03/18 05:04:20;;;;;;;10.50;7.20;;;3.80;99.90;;;;;;5094017;28;20130;-75
2021/03/18 05:06:48;;;;;;;9.95;6.93;;;3.80;99.90;;;;;;5094497;28;20130;-75
2021/03/18 05:09:16;;;;;;;9.95;6.90;;;3.80;99.90;;;;;;5093885;28;20533;-76
2021/03/18 05:11:43;;;;;;;11.43;7.78;;;3.80;99.90;;;;;;5094198;28;20144;-75
2021/03/18 05:14:11;;;;;;;11.52;7.90;;;3.80;99.90;;;;;;5094095;28;20127;-75
2021/03/18 05:16:38;;;;;;;12.45;7.65;;;3.80;99.90;;;;;;5077874;28;20135;-75
2021/03/18 05:19:09;;;;;;;11.32;8.15;;;3.80;99.90;;;;;;5093822;28;20498;-76
2021/03/18 05:21:42;;;;;;;12.73;7.85;;;3.80;99.90;;;;;;5093932;28;20123;-76
2021/03/18 05:24:12;;;;;;;12.07;7.85;;;3.80;99.90;;;;;;5075808;28;20132;-76
2021/03/18 05:26:39;;;;;;;12.70;8.48;;;3.80;99.90;;;;;;5078178;28;20118;-77
2021/03/18 05:29:07;;;;;;;12.00;7.88;;;3.80;99.90;;;;;;5099113;28;20122;-75
2021/03/18 05:31:34;;;;;;;13.40;8.27;;;3.90;99.90;;;;;;5097770;28;20593;-75
2021/03/18 05:34:01;;;;;;;12.98;8.65;;;3.80;99.90;;;;;;5093429;28;20478;-75
2021/03/18 05:36:29;;;;;;;13.32;8.45;;;3.90;99.90;;;;;;5093894;28;20532;-75
2021/03/18 05:38:56;;;;;;;13.02;8.77;;;3.90;99.90;;;;;;5093967;28;20140;-76
2021/03/18 05:41:23;;;;;;;12.32;8.40;;;3.90;99.60;;;;;;5093885;28;20143;-75
2021/03/18 05:43:50;;;;;;;12.20;8.32;;;3.90;99.90;;;;;;5092810;28;20136;-75
2021/03/18 05:46:18;;;;;;;13.55;8.90;;;3.80;99.60;;;;;;5093551;28;20130;-75
2021/03/18 05:48:46;;;;;;;11.55;7.93;;;3.80;99.70;;;;;;5093495;28;20048;-76
2021/03/18 05:51:16;;;;;;;13.23;9.00;;;3.70;99.90;;;;;;5093464;28;20127;-76
2021/03/18 05:53:45;;;;;;;14.13;8.88;;;3.70;99.80;;;;;;5093498;28;20579;-75
2021/03/18 05:56:15;;;;;;;12.75;8.88;;;3.70;99.90;;;;;;5075304;28;20135;-75
2021/03/18 05:58:42;;;;;;;13.13;8.45;;;3.70;99.90;;;;;;5093496;28;20131;-75
2021/03/18 06:01:10;;;;;;;12.13;8.80;;;3.60;99.90;;;;;;5093359;28;20127;-75
2021/03/18 06:03:37;;;;;;;13.20;8.85;;;3.60;99.90;;;;;;5075396;28;20048;-75
2021/03/18 06:06:06;;;;;;;13.52;8.63;;;3.60;99.90;;;;;;5093582;28;20138;-76
2021/03/18 06:08:34;;;;;;;13.07;8.88;;;3.60;99.90;;;;;;5093064;28;20079;-75
2021/03/18 06:11:02;;;;;;;15.40;9.07;;;3.60;99.90;;;;;;5093418;28;20130;-76
2021/03/18 06:13:29;;;;;;;15.57;9.38;;;3.60;99.90;;;;;;5093182;28;20087;-75
2021/03/18 06:15:56;;;;;;;15.60;9.43;;;3.60;99.90;;;;;;5093240;28;20131;-76
2021/03/18 06:18:23;;;;;;;13.57;8.80;;;3.50;99.90;;;;;;5094530;28;20156;-75
2021/03/18 06:20:53;;;;;;;15.35;9.35;;;3.50;99.90;;;;;;5097578;28;20178;-75
2021/03/18 06:23:20;;;;;;;13.98;8.82;;;3.60;99.90;;;;;;5096197;28;20138;-75
2021/03/18 06:25:48;;;;;;;12.48;8.85;;;3.50;99.90;;;;;;5093219;28;20046;-75
2021/03/18 06:28:20;;;;;;;12.32;7.55;;;3.50;99.90;;;;;;5092889;28;20044;-75
2021/03/18 06:30:59;;;;;;;11.52;7.70;;;3.50;99.90;;;;;;5093482;28;20056;-75
2021/03/18 06:33:28;;;;;;;12.90;8.10;;;3.60;99.90;;;;;;5093490;28;20055;-75
2021/03/18 06:35:55;;;;;;;11.32;7.15;;;3.50;99.90;;;;;;5093000;28;20126;-76
2021/03/18 06:38:31;;;;;;;12.32;8.18;;;3.60;99.90;;;;;;5093303;28;20076;-75
2021/03/18 06:40:59;;;;;;;11.82;7.63;;;3.60;99.90;;;;;;5092959;28;20072;-75
2021/03/18 06:43:39;;;;;;;13.13;8.10;;;3.50;99.90;;;;;;5075265;28;20052;-75
2021/03/18 06:46:19;;;;;;;12.05;7.30;;;3.60;99.90;;;;;;5092755;28;20047;-75
2021/03/18 06:48:47;;;;;;;12.05;7.45;;;3.60;99.90;;;;;;5092720;28;20552;-75
2021/03/18 06:51:19;;;;;;;10.63;7.15;;;3.60;99.90;;;;;;5092796;28;20487;-76
2021/03/18 06:53:46;;;;;;;11.32;6.80;;;3.60;99.90;;;;;;5092740;28;20135;-75
2021/03/18 06:56:23;;;;;;;9.93;6.05;;;3.70;99.80;;;;;;5078250;28;20545;-75
2021/03/18 06:58:51;;;;;;;10.77;6.93;;;3.60;99.90;;;;;;5096700;28;20130;-75
2021/03/18 07:01:24;;;;;;;10.77;7.60;;;3.70;99.90;;;;;;5096818;28;20458;-75
2021/03/18 07:03:51;;;;;;;9.68;5.63;;;3.70;99.90;;;;;;5096455;28;20052;-75
2021/03/18 07:06:30;;;;;;;8.82;5.43;;;3.70;99.30;;;;;;5096681;28;20541;-75
2021/03/18 07:09:09;;;;;;;8.88;5.28;;;3.70;99.70;;;;;;5097114;28;20139;-75
2021/03/18 07:11:42;;;;;;;9.50;5.63;;;3.70;99.90;;;;;;5096711;28;20056;-75
2021/03/18 07:14:10;;;;;;;9.57;5.30;;;3.70;99.60;;;;;;5096762;28;20706;-74
2021/03/18 07:16:46;;;;;;;8.80;5.55;;;3.70;99.30;;;;;;5078401;28;20560;-74
2021/03/18 07:19:25;;;;;;;9.45;5.22;;;3.70;99.40;;;;;;5062918;28;20058;-75
2021/03/18 07:21:52;;;;;;;11.90;5.93;;;3.70;99.10;;;;;;5107104;28;20481;-75
2021/03/18 07:24:28;;;;;;;8.25;5.50;;;3.80;99.20;;;;;;5097188;28;20123;-75
2021/03/18 07:26:56;;;;;;;9.02;5.80;;;3.80;99.50;;;;;;5095829;28;20077;-75
2021/03/18 07:29:28;;;;;;;10.40;5.75;;;3.90;99.30;;;;;;5096077;28;20075;-75
2021/03/18 07:31:56;;;;;;;10.27;5.90;;;3.90;99.00;;;;;;5095836;28;20080;-75
2021/03/18 07:34:25;;;;;;;8.32;5.45;;;4.00;98.80;;;;;;5094697;28;20666;-75
2021/03/18 07:36:57;;;;;;;9.75;5.70;;;4.00;99.00;;;;;;5077480;28;20184;-75
2021/03/18 07:39:26;;;;;;;11.57;6.55;;;4.10;99.10;;;;;;5096135;28;20044;-75
2021/03/18 07:41:54;;;;;;;11.80;5.88;;;4.30;99.00;;;;;;5096256;28;20072;-75
2021/03/18 07:44:23;;;;;;;9.85;5.90;;;4.20;99.10;;;;;;5096086;28;20095;-75
2021/03/18 07:46:51;;;;;;;10.13;6.20;;;4.30;98.90;;;;;;5095958;28;20487;-75
2021/03/18 07:49:21;;;;;;;10.50;6.25;;;4.40;98.60;;;;;;5078134;28;20082;-75
2021/03/18 07:51:50;;;;;;;10.25;6.15;;;4.50;98.70;;;;;;5095604;28;20129;-75
2021/03/18 07:54:20;;;;;;;9.63;5.88;;;4.50;98.40;;;;;;5095878;28;20048;-75
2021/03/18 07:56:49;;;;;;;9.80;6.18;;;4.60;98.50;;;;;;5095869;28;20123;-75
2021/03/18 07:59:18;;;;;;;12.00;6.50;;;4.70;97.80;;;;;;5095817;28;20123;-75
2021/03/18 08:01:46;;;;;;;12.50;6.90;;;4.70;97.20;;;;;;5095043;28;20139;-75
2021/03/18 08:04:14;;;;;;;11.85;6.38;;;4.80;96.60;;;;;;5077926;28;20044;-74
2021/03/18 08:06:55;;;;;;;8.80;5.82;;;4.60;97.00;;;;;;5076259;28;20458;-74
2021/03/18 08:09:52;;;;;;;12.02;6.35;;;4.40;97.60;;;;;;5095438;28;20508;-75
2021/03/18 08:12:42;;;;;;;11.38;6.50;;;4.60;98.10;;;;;;5077497;28;20466;-75
2021/03/18 08:15:27;;;;;;;9.90;6.70;;;4.70;98.10;;;;;;5095199;28;20047;-74
2021/03/18 08:17:56;;;;;;;;;;;4.70;97.50;;;;;;5095889;28;20469;-75
2021/03/18 08:21:03;;;;;;;11.23;6.18;;;4.80;97.00;;;;;;5095399;28;20054;-75
2021/03/18 08:23:54;;;;;;;10.73;7.07;;;4.70;97.20;;;;;;5077222;28;20102;-75
2021/03/18 08:26:48;;;;;;;11.30;6.75;;;4.70;97.40;;;;;;5045184;28;20067;-75
2021/03/18 08:29:22;;;;;;;10.48;6.88;;;4.80;97.40;;;;;;5095166;28;20513;-75
2021/03/18 08:32:02;;;;;;;10.30;6.65;;;4.80;96.80;;;;;;5095207;28;20076;-75
2021/03/18 08:34:50;;;;;;;12.32;7.55;;;4.80;97.10;;;;;;5095222;28;20076;-75
2021/03/18 08:37:33;;;;;;;12.88;6.78;;;4.90;96.60;;;;;;5077097;28;20442;-75
2021/03/18 08:40:01;;;;;;;11.40;6.77;;;4.90;96.80;;;;;;5074680;28;20111;-75
2021/03/18 08:42:59;;;;;;;12.00;6.97;;;4.90;97.30;;;;;;5074472;28;20494;-74
2021/03/18 08:45:44;;;;;;;11.45;6.55;;;5.00;96.70;;;;;;5074451;28;20080;-74
2021/03/18 08:48:21;;;;;;;10.80;6.38;;;5.10;96.30;;;;;;5074486;28;20052;-75
2021/03/18 08:50:58;;;;;;;10.85;6.10;;;5.10;95.90;;;;;;5074533;28;20513;-74
2021/03/18 08:53:35;;;;;;;12.18;7.03;;;5.20;96.10;;;;;;5056851;28;20101;-74
2021/03/18 08:56:04;;;;;;;11.05;6.38;;;5.30;95.50;;;;;;5074625;28;20045;-74
2021/03/18 08:58:46;;;;;;;9.93;5.97;;;5.40;95.50;;;;;;5074281;28;20066;-74
2021/03/18 09:01:21;;;;;;;10.57;6.43;;;5.50;95.60;;;;;;5074139;28;20048;-74
2021/03/18 09:03:57;;;;;;;9.98;5.85;;;5.60;95.30;;;;;;5087050;28;20450;-75
2021/03/18 09:06:27;;;;;;;10.15;5.75;;;5.70;94.90;;;;;;5094347;28;20094;-74
2021/03/18 09:08:53;;;;;;;11.95;6.78;;;5.70;94.70;;;;;;5094213;28;20570;-75
2021/03/18 09:11:25;;;;;;;10.20;6.35;;;5.80;94.50;;;;;;5095697;28;20134;-75
2021/03/18 09:13:52;;;;;;;10.70;6.47;;;5.80;94.20;;;;;;5102764;28;20509;-75
2021/03/18 09:16:21;;;;;;;13.65;6.63;;;5.80;93.20;;;;;;5094239;28;20135;-75
2021/03/18 09:18:49;;;;;;;10.93;6.25;;;5.70;92.70;;;;;;5094032;28;20044;-75
2021/03/18 09:21:15;;;;;;;11.52;6.47;;;5.70;92.70;;;;;;5076093;28;20083;-75
2021/03/18 09:23:45;;;;;;;10.13;5.85;;;5.70;92.80;;;;;;5094107;28;20518;-74
2021/03/18 09:26:15;;;;;;;9.63;5.72;;;5.60;92.20;;;;;;5094130;28;20136;-74
2021/03/18 09:28:47;;;;;;;9.20;5.35;;;5.60;92.50;;;;;;5075556;28;20477;-74
2021/03/18 09:31:19;;;;;;;9.80;6.10;;;5.70;92.70;;;;;;5076126;28;20131;-75
2021/03/18 09:33:47;;;;;;;10.75;5.55;;;5.80;92.10;;;;;;5094129;28;20048;-76
2021/03/18 09:36:24;;;;;;;9.50;5.32;;;5.90;92.00;;;;;;5094918;28;20075;-74
2021/03/18 09:39:00;;;;;;;10.13;5.78;;;5.90;91.90;;;;;;5102830;28;20075;-75
2021/03/18 09:41:30;;;;;;;8.73;5.03;;;5.90;91.80;;;;;;5085057;28;20044;-75
2021/03/18 09:44:09;;;;;;;10.30;5.45;;;6.00;91.10;;;;;;5095023;28;20048;-75
2021/03/18 09:46:37;;;;;;;8.77;5.53;;;6.10;90.00;;;;;;5075714;28;20086;-75
2021/03/18 09:49:06;;;;;;;9.27;5.22;;;6.10;90.00;;;;;;5094108;28;20104;-74
2021/03/18 09:51:37;;;;;;;8.00;5.50;;;6.10;90.40;;;;;;5093326;28;20592;-75
2021/03/18 09:54:08;;;;;;;10.05;5.35;;;6.10;90.00;;;;;;5093406;28;20108;-74
2021/03/18 09:56:37;;;;;;;7.85;5.05;;;6.20;90.50;;;;;;5075731;28;20448;-74
2021/03/18 09:59:06;;;;;;;11.98;5.28;;;6.30;90.40;;;;;;5093537;28;20474;-74
2021/03/18 10:01:34;;;;;;;7.72;4.80;;;6.40;90.20;;;;;;5093437;28;20043;-75
2021/03/18 10:04:03;;;;;;;8.45;5.13;;;6.60;89.00;;;;;;5094078;28;20138;-74
2021/03/18 10:06:32;;;;;;;9.07;4.63;;;6.50;88.00;;;;;;5075270;28;20083;-75
2021/03/18 10:09:18;;;;;;;8.15;5.15;;;6.60;87.40;;;;;;5093422;28;20123;-75
2021/03/18 10:11:47;;;;;;;9.73;5.40;;;6.60;84.80;;;;;;5093115;28;20124;-75
2021/03/18 10:14:18;;;;;;;8.68;5.15;;;6.70;84.20;;;;;;5093080;28;20055;-74
2021/03/18 10:16:46;;;;;;;9.15;5.20;;;6.60;85.00;;;;;;5093359;28;20414;-74
2021/03/18 10:19:14;;;;;;;7.55;4.20;;;6.60;84.10;;;;;;5093196;28;20122;-75
2021/03/18 10:21:41;;;;;;;7.07;4.40;;;6.60;85.50;;;;;;5093128;28;20079;-75
2021/03/18 10:24:13;;;;;;;7.47;3.90;;;6.60;85.70;;;;;;5092953;28;20047;-75
2021/03/18 10:26:41;;;;;;;7.25;4.40;;;6.60;83.60;;;;;;5075225;28;20537;-75
2021/03/18 10:29:10;;;;;;;7.82;4.25;;;6.60;83.60;;;;;;5092198;28;20076;-75
2021/03/18 10:31:39;;;;;;;9.48;5.05;;;6.50;84.10;;;;;;5091654;28;20044;-75
2021/03/18 10:34:06;;;;;;;7.55;4.47;;;6.50;83.00;;;;;;5092928;28;20130;-75
2021/03/18 10:36:35;;;;;;;8.60;4.28;;;6.50;84.00;;;;;;5091849;28;20230;-75
2021/03/18 10:39:07;;;;;;;8.20;5.30;;;6.50;83.50;;;;;;5074617;28;20047;-74
2021/03/18 10:41:35;;;;;;;8.13;5.38;;;6.50;82.70;;;;;;5092926;28;20134;-74
2021/03/18 10:44:02;;;;;;;7.60;5.20;;;6.50;83.30;;;;;;5074811;28;20094;-74
2021/03/18 10:46:33;;;;;;;7.95;5.43;;;6.40;83.20;;;;;;5092740;28;20127;-74
2021/03/18 10:49:04;;;;;;;10.85;5.38;;;6.40;83.10;;;;;;5093560;28;20086;-75
2021/03/18 10:51:31;;;;;;;8.65;4.75;;;6.40;82.70;;;;;;5093804;28;20126;-76
2021/03/18 10:53:58;;;;;;;10.63;5.25;;;6.30;83.50;;;;;;5093302;28;20139;-77
2021/03/18 10:56:29;;;;;;;9.05;5.32;;;6.20;84.00;;;;;;5092518;28;20573;-76
2021/03/18 10:58:55;;;;;;;7.30;4.60;;;6.20;84.30;;;;;;5075001;28;20174;-76
2021/03/18 11:01:25;;;;;;;8.70;4.07;;;6.20;85.30;;;;;;5093932;28;20055;-76
2021/03/18 11:04:02;;;;;;;7.00;3.90;;;6.10;85.20;;;;;;5098400;28;20094;-76
2021/03/18 11:06:29;;;;;;;6.60;3.72;;;6.10;85.60;;;;;;5087393;28;20455;-77
2021/03/18 11:08:57;;;;;;;6.78;3.33;;;6.10;84.80;;;;;;5092863;28;20075;-77
2021/03/18 11:11:26;;;;;;;6.40;3.38;;;6.20;85.20;;;;;;5092282;28;20090;-75
2021/03/18 11:14:05;;;;;;;6.57;3.45;;;6.20;84.90;;;;;;5092249;28;20193;-76
2021/03/18 11:16:33;;;;;;;6.15;3.17;;;6.30;84.20;;;;;;5074518;28;20127;-76
2021/03/18 11:19:03;;;;;;;9.43;4.80;;;6.40;82.70;;;;;;5091949;28;20052;-75
2021/03/18 11:21:34;;;;;;;8.43;4.75;;;6.50;81.80;;;;;;5092128;28;20044;-75
2021/03/18 11:24:08;;;;;;;9.68;4.80;;;6.50;82.30;;;;;;5092063;28;20060;-76
2021/03/18 11:26:35;;;;;;;8.35;4.50;;;6.50;82.50;;;;;;5091789;28;20661;-76
2021/03/18 11:29:09;;;;;;;8.02;4.40;;;6.40;83.00;;;;;;5092106;28;20584;-76
2021/03/18 11:31:40;;;;;;;6.75;4.47;;;6.50;83.00;;;;;;5092016;28;20462;-76
2021/03/18 11:34:14;;;;;;;7.32;4.10;;;6.50;82.00;;;;;;5091870;28;20063;-76
2021/03/18 11:36:41;;;;;;;9.00;4.43;;;6.50;81.80;;;;;;5092101;28;20044;-75
2021/03/18 11:39:08;;;;;;;6.55;4.18;;;6.60;80.60;;;;;;5091352;28;20564;-77
2021/03/18 11:41:36;;;;;;;7.45;4.07;;;6.50;81.50;;;;;;5075633;28;20044;-77
2021/03/18 11:44:03;;;;;;;6.65;4.10;;;6.60;82.20;;;;;;5095578;28;20060;-76
2021/03/18 11:46:30;;;;;;;7.07;4.47;;;6.60;81.90;;;;;;5095957;28;20071;-76
2021/03/18 11:48:57;;;;;;;7.85;4.50;;;6.80;81.20;;;;;;5095892;28;20091;-76
2021/03/18 11:51:24;;;;;;;8.65;4.85;;;6.80;79.20;;;;;;5094946;28;20047;-75
2021/03/18 11:53:51;;;;;;;8.20;4.90;;;6.80;78.10;;;;;;5095205;28;20144;-75
2021/03/18 11:56:18;;;;;;;8.75;4.45;;;6.90;77.60;;;;;;5095229;28;20172;-75
2021/03/18 11:58:45;;;;;;;7.32;3.88;;;6.80;77.50;;;;;;5094712;28;20524;-75
2021/03/18 12:01:12;;;;;;;6.70;3.85;;;6.80;78.30;;;;;;5095095;28;20580;-75
2021/03/18 12:03:38;;;;;;;7.18;4.43;;;6.80;79.60;;;;;;5077075;28;20091;-75
2021/03/18 12:06:06;;;;;;;7.20;4.03;;;6.90;80.10;;;;;;5095099;28;20055;-75
2021/03/18 12:08:33;;;;;;;8.48;4.55;;;7.00;81.20;;;;;;5095319;28;20135;-75
2021/03/18 12:11:00;;;;;;;6.43;4.25;;;7.30;80.70;;;;;;5095308;28;20040;-75
2021/03/18 12:13:26;;;;;;;8.18;4.47;;;7.40;78.10;;;;;;5094833;28;20094;-75
2021/03/18 12:15:53;;;;;;;7.47;4.70;;;7.50;74.90;;;;;;5094707;28;20148;-75
2021/03/18 12:18:21;;;;;;;7.53;4.60;;;7.50;74.70;;;;;;5094988;28;20095;-75
2021/03/18 12:20:48;;;;;;;6.82;4.80;;;7.70;74.20;;;;;;5076790;28;20508;-76
2021/03/18 12:23:15;;;;;;;8.00;4.50;;;7.80;71.80;;;;;;5095187;28;20052;-76
2021/03/18 12:25:42;;;;;;;7.47;4.32;;;7.80;73.30;;;;;;5094923;28;20134;-75
2021/03/18 12:28:09;;;;;;;7.97;4.10;;;8.00;69.30;;;;;;5094613;28;20051;-76
2021/03/18 12:30:36;;;;;;;6.95;4.03;;;8.00;69.50;;;;;;5076856;28;20562;-75
2021/03/18 12:33:02;;;;;;;7.22;4.00;;;8.10;70.20;;;;;;5076670;28;20131;-76
2021/03/18 12:35:29;;;;;;;7.90;3.85;;;8.30;71.10;;;;;;5077142;28;20134;-76
2021/03/18 12:37:56;;;;;;;6.43;4.38;;;8.40;71.20;;;;;;5094121;28;20556;-76
2021/03/18 12:40:25;;;;;;;7.90;4.60;;;8.70;66.00;;;;;;5094365;28;20140;-75
2021/03/18 12:42:53;;;;;;;7.93;4.65;;;8.80;65.30;;;;;;5094683;28;20135;-75
2021/03/18 12:45:20;;;;;;;6.45;4.03;;;8.70;63.50;;;;;;5094550;28;20050;-76
2021/03/18 12:47:47;;;;;;;8.98;4.82;;;8.60;63.80;;;;;;5094417;28;20079;-77
2021/03/18 12:50:17;;;;;;;10.43;5.65;;;8.60;63.50;;;;;;5076223;28;20127;-74
2021/03/18 12:52:44;;;;;;;16.80;9.55;;;8.70;65.00;;;;;;5093888;28;20048;-75
2021/03/18 12:55:12;;;;;;;12.43;6.18;;;9.00;65.30;;;;;;5093957;28;20139;-75
2021/03/18 12:57:41;;;;;;;6.85;3.85;;;9.20;64.00;;;;;;5094435;28;20130;-75
2021/03/18 13:00:10;;;;;;;6.85;3.80;;;9.50;64.90;;;;;;5059674;28;20048;-74
2021/03/18 13:02:37;;;;;;;6.80;4.38;;;9.90;62.90;;;;;;5094226;28;20052;-75
2021/03/18 13:05:05;;;;;;;6.15;3.85;;;10.20;60.10;;;;;;5097571;28;20075;-75
2021/03/18 13:07:32;;;;;;;6.95;3.70;;;10.40;58.50;;;;;;5097312;28;20123;-74
2021/03/18 13:09:59;;;;;;;6.22;3.58;;;10.70;57.30;;;;;;5098984;28;20069;-75